sensor_id;sensor_type;location;lat;lon;timestamp;temperature;humidity
19908;DHT22;10116;53.112;7.356;2022-08-06T00:00:32;28.50;99.90
19908;DHT22;10116;53.112;7.356;2022-08-06T00:02:58;28.60;99.90
19908;DHT22;10116;53.112;7.356;2022-08-06T00:05:23;28.60;99.90
19908;DHT22;10116;53.112;7.356;2022-08-06T00:07:50;28.50;99.90
19908;DHT22;10116;53.112;7.356;2022-08-06T00:10:17;28.60;99.90
19908;DHT22;10116;53.112;7.356;2022-08-06T00:12:43;28.50;99.90
19908;DHT22;10116;53.112;7.356;2022-08-06T00:15:09;28.50;99.90
19908;DHT22;10116;53.112;7.356;2022-08-06T00:17:35;28.50;99.90
19908;DHT22;10116;53.112;7.356;2022-08-06T00:20:00;28.50;99.90
19908;DHT22;10116;53.112;7.356;2022-08-06T00:22:27;28.50;99.90
19908;DHT22;10116;53.112;7.356;2022-08-06T00:24:53;28.50;99.90
19908;DHT22;10116;53.112;7.356;2022-08-06T00:27:19;28.50;99.90
19908;DHT22;10116;53.112;7.356;2022-08-06T00:29:44;28.50;99.90
19908;DHT22;10116;53.112;7.356;2022-08-06T00:32:10;28.40;99.90
19908;DHT22;10116;53.112;7.356;2022-08-06T00:34:35;28.50;99.90
19908;DHT22;10116;53.112;7.356;2022-08-06T00:37:01;28.40;99.90
19908;DHT22;10116;53.112;7.356;2022-08-06T00:39:27;28.40;99.90
19908;DHT22;10116;53.112;7.356;2022-08-06T00:41:52;28.50;99.90
19908;DHT22;10116;53.112;7.356;2022-08-06T00:44:18;28.40;99.90
19908;DHT22;10116;53.112;7.356;2022-08-06T00:46:44;28.40;99.90
19908;DHT22;10116;53.112;7.356;2022-08-06T00:49:10;28.40;99.90
19908;DHT22;10116;53.112;7.356;2022-08-06T00:51:35;28.40;99.90
19908;DHT22;10116;53.112;7.356;2022-08-06T00:54:01;28.40;99.90
19908;DHT22;10116;53.112;7.356;2022-08-06T00:56:26;28.30;99.90
19908;DHT22;10116;53.112;7.356;2022-08-06T00:58:52;28.40;99.90
19908;DHT22;10116;53.112;7.356;2022-08-06T01:01:18;28.30;99.90
19908;DHT22;10116;53.112;7.356;2022-08-06T01:03:45;28.30;99.90
19908;DHT22;10116;53.112;7.356;2022-08-06T01:06:10;28.30;99.90
19908;DHT22;10116;53.112;7.356;2022-08-06T01:08:36;28.30;99.90
19908;DHT22;10116;53.112;7.356;2022-08-06T01:11:02;28.30;99.90
19908;DHT22;10116;53.112;7.356;2022-08-06T01:13:28;28.30;99.90
19908;DHT22;10116;53.112;7.356;2022-08-06T01:22:13;28.30;99.90
19908;DHT22;10116;53.112;7.356;2022-08-06T01:24:58;28.30;99.90
19908;DHT22;10116;53.112;7.356;2022-08-06T01:30:11;28.30;99.90
19908;DHT22;10116;53.112;7.356;2022-08-06T01:32:58;28.30;99.90
19908;DHT22;10116;53.112;7.356;2022-08-06T01:35:34;28.30;99.90
19908;DHT22;10116;53.112;7.356;2022-08-06T01:38:05;28.30;99.90
19908;DHT22;10116;53.112;7.356;2022-08-06T01:40:35;28.20;99.90
19908;DHT22;10116;53.112;7.356;2022-08-06T01:43:02;28.20;99.90
19908;DHT22;10116;53.112;7.356;2022-08-06T01:45:32;28.20;99.90
19908;DHT22;10116;53.112;7.356;2022-08-06T01:48:03;28.20;99.90
19908;DHT22;10116;53.112;7.356;2022-08-06T01:50:33;28.20;99.90
19908;DHT22;10116;53.112;7.356;2022-08-06T01:53:03;28.20;99.90
19908;DHT22;10116;53.112;7.356;2022-08-06T01:55:35;28.20;99.90
19908;DHT22;10116;53.112;7.356;2022-08-06T01:58:04;28.20;99.90
19908;DHT22;10116;53.112;7.356;2022-08-06T02:00:32;28.20;99.90
19908;DHT22;10116;53.112;7.356;2022-08-06T02:03:00;28.10;99.90
19908;DHT22;10116;53.112;7.356;2022-08-06T02:05:28;28.10;99.90
19908;DHT22;10116;53.112;7.356;2022-08-06T02:07:56;28.10;99.90
19908;DHT22;10116;53.112;7.356;2022-08-06T02:10:24;28.10;99.90
19908;DHT22;10116;53.112;7.356;2022-08-06T02:12:52;28.10;99.90
19908;DHT22;10116;53.112;7.356;2022-08-06T02:15:24;28.10;99.90
19908;DHT22;10116;53.112;7.356;2022-08-06T02:17:54;28.10;99.90
19908;DHT22;10116;53.112;7.356;2022-08-06T02:20:27;28.10;99.90
19908;DHT22;10116;53.112;7.356;2022-08-06T02:22:55;28.10;99.90
19908;DHT22;10116;53.112;7.356;2022-08-06T02:25:23;28.10;99.90
19908;DHT22;10116;53.112;7.356;2022-08-06T02:27:51;28.20;99.90
19908;DHT22;10116;53.112;7.356;2022-08-06T02:30:17;28.20;99.90
19908;DHT22;10116;53.112;7.356;2022-08-06T02:32:43;28.20;99.90
19908;DHT22;10116;53.112;7.356;2022-08-06T02:35:10;28.30;99.90
19908;DHT22;10116;53.112;7.356;2022-08-06T02:37:46;28.30;99.90
19908;DHT22;10116;53.112;7.356;2022-08-06T02:40:33;28.30;99.90
19908;DHT22;10116;53.112;7.356;2022-08-06T02:43:18;28.30;99.90
19908;DHT22;10116;53.112;7.356;2022-08-06T02:45:53;28.30;99.90
19908;DHT22;10116;53.112;7.356;2022-08-06T02:48:27;28.30;99.90
19908;DHT22;10116;53.112;7.356;2022-08-06T02:50:57;28.30;99.90
19908;DHT22;10116;53.112;7.356;2022-08-06T02:53:28;28.30;99.90
19908;DHT22;10116;53.112;7.356;2022-08-06T02:56:00;28.30;99.90
19908;DHT22;10116;53.112;7.356;2022-08-06T02:59:04;28.30;99.90
19908;DHT22;10116;53.112;7.356;2022-08-06T03:01:34;28.30;99.90
19908;DHT22;10116;53.112;7.356;2022-08-06T03:04:01;28.30;99.90
19908;DHT22;10116;53.112;7.356;2022-08-06T03:06:30;28.40;99.90
19908;DHT22;10116;53.112;7.356;2022-08-06T03:08:58;28.40;99.90
19908;DHT22;10116;53.112;7.356;2022-08-06T03:11:24;28.30;99.90
19908;DHT22;10116;53.112;7.356;2022-08-06T03:13:51;28.30;99.90
19908;DHT22;10116;53.112;7.356;2022-08-06T03:16:19;28.30;99.90
19908;DHT22;10116;53.112;7.356;2022-08-06T03:18:45;28.30;99.90
19908;DHT22;10116;53.112;7.356;2022-08-06T03:21:13;28.40;99.90
19908;DHT22;10116;53.112;7.356;2022-08-06T03:23:41;28.40;99.90
19908;DHT22;10116;53.112;7.356;2022-08-06T03:26:07;28.40;99.90
19908;DHT22;10116;53.112;7.356;2022-08-06T03:28:34;28.40;99.90
19908;DHT22;10116;53.112;7.356;2022-08-06T03:31:02;28.40;99.90
19908;DHT22;10116;53.112;7.356;2022-08-06T03:33:28;28.40;99.90
19908;DHT22;10116;53.112;7.356;2022-08-06T03:35:55;28.50;99.90
19908;DHT22;10116;53.112;7.356;2022-08-06T03:38:23;28.50;99.90
19908;DHT22;10116;53.112;7.356;2022-08-06T03:40:50;28.60;99.90
19908;DHT22;10116;53.112;7.356;2022-08-06T03:43:16;28.60;99.90
19908;DHT22;10116;53.112;7.356;2022-08-06T03:45:50;28.70;99.90
19908;DHT22;10116;53.112;7.356;2022-08-06T03:48:21;28.70;99.90
19908;DHT22;10116;53.112;7.356;2022-08-06T03:50:49;28.70;99.90
19908;DHT22;10116;53.112;7.356;2022-08-06T03:53:21;28.70;99.90
19908;DHT22;10116;53.112;7.356;2022-08-06T03:55:48;28.70;99.90
19908;DHT22;10116;53.112;7.356;2022-08-06T03:58:17;28.70;99.90
19908;DHT22;10116;53.112;7.356;2022-08-06T04:00:53;28.70;99.90
19908;DHT22;10116;53.112;7.356;2022-08-06T04:03:21;28.70;99.90
19908;DHT22;10116;53.112;7.356;2022-08-06T04:05:47;28.70;99.90
19908;DHT22;10116;53.112;7.356;2022-08-06T04:08:13;28.70;99.90
19908;DHT22;10116;53.112;7.356;2022-08-06T04:10:47;28.70;99.90
19908;DHT22;10116;53.112;7.356;2022-08-06T04:13:19;28.70;99.90
19908;DHT22;10116;53.112;7.356;2022-08-06T04:15:46;28.60;99.90
19908;DHT22;10116;53.112;7.356;2022-08-06T04:18:17;28.70;99.90
19908;DHT22;10116;53.112;7.356;2022-08-06T04:20:46;28.70;99.90
19908;DHT22;10116;53.112;7.356;2022-08-06T04:23:12;28.70;99.90
19908;DHT22;10116;53.112;7.356;2022-08-06T04:25:45;28.70;99.90
19908;DHT22;10116;53.112;7.356;2022-08-06T04:28:14;28.60;99.90
19908;DHT22;10116;53.112;7.356;2022-08-06T04:30:41;28.60;99.90
19908;DHT22;10116;53.112;7.356;2022-08-06T04:33:11;28.60;99.90
19908;DHT22;10116;53.112;7.356;2022-08-06T04:35:40;28.50;99.90
19908;DHT22;10116;53.112;7.356;2022-08-06T04:38:06;28.60;99.90
19908;DHT22;10116;53.112;7.356;2022-08-06T04:40:32;28.60;99.90
19908;DHT22;10116;53.112;7.356;2022-08-06T04:42:58;28.50;99.90
19908;DHT22;10116;53.112;7.356;2022-08-06T04:45:24;28.50;99.90
19908;DHT22;10116;53.112;7.356;2022-08-06T04:47:51;28.50;99.90
19908;DHT22;10116;53.112;7.356;2022-08-06T04:50:18;28.50;99.90
19908;DHT22;10116;53.112;7.356;2022-08-06T04:52:43;28.50;99.90
19908;DHT22;10116;53.112;7.356;2022-08-06T04:55:09;28.50;99.90
19908;DHT22;10116;53.112;7.356;2022-08-06T04:57:35;28.50;99.90
19908;DHT22;10116;53.112;7.356;2022-08-06T05:00:01;28.50;99.90
19908;DHT22;10116;53.112;7.356;2022-08-06T05:02:27;28.50;99.90
19908;DHT22;10116;53.112;7.356;2022-08-06T05:04:53;28.50;99.90
19908;DHT22;10116;53.112;7.356;2022-08-06T05:07:28;28.60;99.90
19908;DHT22;10116;53.112;7.356;2022-08-06T05:09:55;28.50;99.90
19908;DHT22;10116;53.112;7.356;2022-08-06T05:12:42;28.60;99.90
19908;DHT22;10116;53.112;7.356;2022-08-06T05:15:14;28.60;99.90
19908;DHT22;10116;53.112;7.356;2022-08-06T05:17:44;28.60;99.90
19908;DHT22;10116;53.112;7.356;2022-08-06T05:20:18;28.70;99.90
19908;DHT22;10116;53.112;7.356;2022-08-06T05:22:47;28.80;99.90
19908;DHT22;10116;53.112;7.356;2022-08-06T05:25:15;28.90;99.90
19908;DHT22;10116;53.112;7.356;2022-08-06T05:27:41;29.00;99.90
19908;DHT22;10116;53.112;7.356;2022-08-06T05:30:08;29.10;99.90
19908;DHT22;10116;53.112;7.356;2022-08-06T05:32:44;29.20;99.90
19908;DHT22;10116;53.112;7.356;2022-08-06T05:35:10;29.30;99.90
19908;DHT22;10116;53.112;7.356;2022-08-06T05:37:36;29.30;99.90
19908;DHT22;10116;53.112;7.356;2022-08-06T05:40:03;29.40;99.90
19908;DHT22;10116;53.112;7.356;2022-08-06T05:42:29;29.50;99.90
19908;DHT22;10116;53.112;7.356;2022-08-06T05:44:55;29.50;99.90
19908;DHT22;10116;53.112;7.356;2022-08-06T05:47:24;29.50;99.90
19908;DHT22;10116;53.112;7.356;2022-08-06T05:50:14;29.60;99.90
19908;DHT22;10116;53.112;7.356;2022-08-06T05:52:47;29.60;99.90
19908;DHT22;10116;53.112;7.356;2022-08-06T05:57:40;29.60;99.90
19908;DHT22;10116;53.112;7.356;2022-08-06T06:00:10;29.70;99.90
19908;DHT22;10116;53.112;7.356;2022-08-06T06:02:42;29.70;99.90
19908;DHT22;10116;53.112;7.356;2022-08-06T06:05:09;29.70;99.90
19908;DHT22;10116;53.112;7.356;2022-08-06T06:07:36;29.70;99.90
19908;DHT22;10116;53.112;7.356;2022-08-06T06:10:04;29.70;99.90
19908;DHT22;10116;53.112;7.356;2022-08-06T06:12:32;29.60;99.90
19908;DHT22;10116;53.112;7.356;2022-08-06T06:14:58;29.70;99.90
19908;DHT22;10116;53.112;7.356;2022-08-06T06:20:18;29.60;99.90
19908;DHT22;10116;53.112;7.356;2022-08-06T06:23:15;29.60;99.90
19908;DHT22;10116;53.112;7.356;2022-08-06T06:28:33;29.60;99.90
19908;DHT22;10116;53.112;7.356;2022-08-06T06:31:07;29.50;99.90
19908;DHT22;10116;53.112;7.356;2022-08-06T06:33:47;29.60;99.90
19908;DHT22;10116;53.112;7.356;2022-08-06T06:36:56;29.50;99.90
19908;DHT22;10116;53.112;7.356;2022-08-06T06:39:41;29.60;99.90
19908;DHT22;10116;53.112;7.356;2022-08-06T06:42:15;29.60;99.90
19908;DHT22;10116;53.112;7.356;2022-08-06T06:44:44;29.60;99.90
19908;DHT22;10116;53.112;7.356;2022-08-06T06:47:17;29.60;99.90
19908;DHT22;10116;53.112;7.356;2022-08-06T06:49:58;29.60;99.90
19908;DHT22;10116;53.112;7.356;2022-08-06T06:52:28;29.60;99.90
19908;DHT22;10116;53.112;7.356;2022-08-06T06:55:02;29.60;99.90
19908;DHT22;10116;53.112;7.356;2022-08-06T06:57:32;29.60;99.90
19908;DHT22;10116;53.112;7.356;2022-08-06T07:00:03;29.50;99.90
19908;DHT22;10116;53.112;7.356;2022-08-06T07:02:32;29.50;99.90
19908;DHT22;10116;53.112;7.356;2022-08-06T07:05:01;29.50;99.90
19908;DHT22;10116;53.112;7.356;2022-08-06T07:07:33;29.50;99.90
19908;DHT22;10116;53.112;7.356;2022-08-06T07:10:00;29.50;99.90
19908;DHT22;10116;53.112;7.356;2022-08-06T07:12:29;29.50;99.90
19908;DHT22;10116;53.112;7.356;2022-08-06T07:14:58;29.50;99.90
19908;DHT22;10116;53.112;7.356;2022-08-06T07:17:25;29.50;99.90
19908;DHT22;10116;53.112;7.356;2022-08-06T07:19:55;29.40;99.90
19908;DHT22;10116;53.112;7.356;2022-08-06T07:22:23;29.40;99.90
19908;DHT22;10116;53.112;7.356;2022-08-06T07:24:51;29.40;99.90
19908;DHT22;10116;53.112;7.356;2022-08-06T07:27:18;29.40;99.90
19908;DHT22;10116;53.112;7.356;2022-08-06T07:29:45;29.40;99.90
19908;DHT22;10116;53.112;7.356;2022-08-06T07:32:11;29.40;99.90
19908;DHT22;10116;53.112;7.356;2022-08-06T07:34:39;29.30;99.90
19908;DHT22;10116;53.112;7.356;2022-08-06T07:37:05;29.30;99.90
19908;DHT22;10116;53.112;7.356;2022-08-06T07:39:34;29.20;99.90
19908;DHT22;10116;53.112;7.356;2022-08-06T07:42:07;29.20;99.90
19908;DHT22;10116;53.112;7.356;2022-08-06T07:44:36;29.20;99.90
19908;DHT22;10116;53.112;7.356;2022-08-06T07:47:03;29.20;99.90
19908;DHT22;10116;53.112;7.356;2022-08-06T07:49:39;29.20;99.90
19908;DHT22;10116;53.112;7.356;2022-08-06T07:52:07;29.30;99.90
19908;DHT22;10116;53.112;7.356;2022-08-06T07:54:34;29.30;99.90
19908;DHT22;10116;53.112;7.356;2022-08-06T07:57:00;29.30;99.90
19908;DHT22;10116;53.112;7.356;2022-08-06T07:59:26;29.30;99.90
19908;DHT22;10116;53.112;7.356;2022-08-06T08:01:52;29.40;99.90
19908;DHT22;10116;53.112;7.356;2022-08-06T08:04:18;29.40;99.90
19908;DHT22;10116;53.112;7.356;2022-08-06T08:07:04;29.40;99.90
19908;DHT22;10116;53.112;7.356;2022-08-06T08:09:31;29.30;99.90
19908;DHT22;10116;53.112;7.356;2022-08-06T08:11:57;29.40;99.90
19908;DHT22;10116;53.112;7.356;2022-08-06T08:14:24;29.30;99.90
19908;DHT22;10116;53.112;7.356;2022-08-06T08:16:50;29.30;99.90
19908;DHT22;10116;53.112;7.356;2022-08-06T08:19:23;29.30;99.90
19908;DHT22;10116;53.112;7.356;2022-08-06T08:21:52;29.30;99.90
19908;DHT22;10116;53.112;7.356;2022-08-06T08:24:19;29.20;99.90
19908;DHT22;10116;53.112;7.356;2022-08-06T08:26:44;29.20;99.90
19908;DHT22;10116;53.112;7.356;2022-08-06T08:29:11;29.20;99.90
19908;DHT22;10116;53.112;7.356;2022-08-06T08:31:37;29.20;99.90
19908;DHT22;10116;53.112;7.356;2022-08-06T08:34:02;29.20;99.90
19908;DHT22;10116;53.112;7.356;2022-08-06T08:36:28;29.20;99.90
19908;DHT22;10116;53.112;7.356;2022-08-06T08:38:53;29.10;99.90
19908;DHT22;10116;53.112;7.356;2022-08-06T08:41:25;29.10;99.90
19908;DHT22;10116;53.112;7.356;2022-08-06T08:44:03;29.10;99.90
19908;DHT22;10116;53.112;7.356;2022-08-06T08:46:39;29.10;99.90
19908;DHT22;10116;53.112;7.356;2022-08-06T08:49:07;29.10;99.90
19908;DHT22;10116;53.112;7.356;2022-08-06T08:51:36;29.00;99.90
19908;DHT22;10116;53.112;7.356;2022-08-06T08:54:06;29.00;99.90
19908;DHT22;10116;53.112;7.356;2022-08-06T08:56:33;29.00;99.90
19908;DHT22;10116;53.112;7.356;2022-08-06T08:59:00;29.00;99.90
19908;DHT22;10116;53.112;7.356;2022-08-06T09:01:26;29.00;99.90
19908;DHT22;10116;53.112;7.356;2022-08-06T09:03:52;29.00;99.90
19908;DHT22;10116;53.112;7.356;2022-08-06T09:06:18;28.90;99.90
19908;DHT22;10116;53.112;7.356;2022-08-06T09:08:45;28.90;99.90
19908;DHT22;10116;53.112;7.356;2022-08-06T09:11:12;29.00;99.90
19908;DHT22;10116;53.112;7.356;2022-08-06T09:13:37;28.90;99.90
19908;DHT22;10116;53.112;7.356;2022-08-06T09:16:03;28.90;99.90
19908;DHT22;10116;53.112;7.356;2022-08-06T09:18:29;28.90;99.90
19908;DHT22;10116;53.112;7.356;2022-08-06T09:20:55;28.90;99.90
19908;DHT22;10116;53.112;7.356;2022-08-06T09:23:21;28.90;99.90
19908;DHT22;10116;53.112;7.356;2022-08-06T09:25:51;28.90;99.90
19908;DHT22;10116;53.112;7.356;2022-08-06T09:28:40;28.90;99.90
19908;DHT22;10116;53.112;7.356;2022-08-06T09:31:13;28.80;99.90
19908;DHT22;10116;53.112;7.356;2022-08-06T09:34:03;28.80;99.90
19908;DHT22;10116;53.112;7.356;2022-08-06T09:36:26;28.80;99.90
19908;DHT22;10116;53.112;7.356;2022-08-06T09:38:56;28.80;99.90
19908;DHT22;10116;53.112;7.356;2022-08-06T09:41:24;28.80;99.90
19908;DHT22;10116;53.112;7.356;2022-08-06T09:43:52;28.80;99.90
19908;DHT22;10116;53.112;7.356;2022-08-06T09:46:44;28.80;99.90
19908;DHT22;10116;53.112;7.356;2022-08-06T09:49:12;28.80;99.90
19908;DHT22;10116;53.112;7.356;2022-08-06T09:51:38;28.70;99.90
19908;DHT22;10116;53.112;7.356;2022-08-06T09:54:11;28.70;99.90
19908;DHT22;10116;53.112;7.356;2022-08-06T09:56:44;28.80;99.90
19908;DHT22;10116;53.112;7.356;2022-08-06T09:59:11;28.80;99.90
19908;DHT22;10116;53.112;7.356;2022-08-06T10:01:45;28.70;99.90
19908;DHT22;10116;53.112;7.356;2022-08-06T10:04:23;28.80;99.90
19908;DHT22;10116;53.112;7.356;2022-08-06T10:06:59;28.80;99.90
19908;DHT22;10116;53.112;7.356;2022-08-06T10:09:26;28.90;99.90
19908;DHT22;10116;53.112;7.356;2022-08-06T10:11:52;28.90;99.90
19908;DHT22;10116;53.112;7.356;2022-08-06T10:14:26;28.90;99.90
19908;DHT22;10116;53.112;7.356;2022-08-06T10:17:15;29.00;99.90
19908;DHT22;10116;53.112;7.356;2022-08-06T10:22:29;29.10;99.90
19908;DHT22;10116;53.112;7.356;2022-08-06T10:24:56;29.10;99.90
19908;DHT22;10116;53.112;7.356;2022-08-06T10:27:33;29.10;99.90
19908;DHT22;10116;53.112;7.356;2022-08-06T10:30:05;29.10;99.90
19908;DHT22;10116;53.112;7.356;2022-08-06T10:32:47;29.10;99.90
19908;DHT22;10116;53.112;7.356;2022-08-06T10:35:21;29.10;99.90
19908;DHT22;10116;53.112;7.356;2022-08-06T10:37:52;29.10;99.90
19908;DHT22;10116;53.112;7.356;2022-08-06T10:40:22;29.10;99.90
19908;DHT22;10116;53.112;7.356;2022-08-06T10:42:49;29.10;99.90
19908;DHT22;10116;53.112;7.356;2022-08-06T10:45:17;29.10;99.90
19908;DHT22;10116;53.112;7.356;2022-08-06T10:47:45;29.10;99.90
19908;DHT22;10116;53.112;7.356;2022-08-06T10:50:14;29.10;99.90
19908;DHT22;10116;53.112;7.356;2022-08-06T10:52:41;29.10;99.90
19908;DHT22;10116;53.112;7.356;2022-08-06T10:55:08;29.10;99.90
19908;DHT22;10116;53.112;7.356;2022-08-06T10:57:34;29.10;99.90
19908;DHT22;10116;53.112;7.356;2022-08-06T11:00:02;29.10;99.90
19908;DHT22;10116;53.112;7.356;2022-08-06T11:05:07;29.10;99.90
19908;DHT22;10116;53.112;7.356;2022-08-06T11:10:29;29.10;99.90
19908;DHT22;10116;53.112;7.356;2022-08-06T11:15:48;29.10;99.90
19908;DHT22;10116;53.112;7.356;2022-08-06T11:18:14;29.10;99.90
19908;DHT22;10116;53.112;7.356;2022-08-06T11:20:45;29.10;99.90
19908;DHT22;10116;53.112;7.356;2022-08-06T11:25:44;29.10;99.90
19908;DHT22;10116;53.112;7.356;2022-08-06T11:28:11;29.10;99.90
19908;DHT22;10116;53.112;7.356;2022-08-06T11:30:46;29.10;99.90
19908;DHT22;10116;53.112;7.356;2022-08-06T11:33:15;29.10;99.90
19908;DHT22;10116;53.112;7.356;2022-08-06T11:35:42;29.20;99.90
19908;DHT22;10116;53.112;7.356;2022-08-06T11:38:12;29.20;99.90
19908;DHT22;10116;53.112;7.356;2022-08-06T11:40:59;29.20;99.90
19908;DHT22;10116;53.112;7.356;2022-08-06T12:02:10;29.60;99.90
19908;DHT22;10116;53.112;7.356;2022-08-06T12:07:24;29.50;99.90
19908;DHT22;10116;53.112;7.356;2022-08-06T12:12:40;29.60;99.90
19908;DHT22;10116;53.112;7.356;2022-08-06T12:20:37;29.60;99.90
19908;DHT22;10116;53.112;7.356;2022-08-06T12:23:09;29.60;99.90
19908;DHT22;10116;53.112;7.356;2022-08-06T12:25:40;29.60;99.90
19908;DHT22;10116;53.112;7.356;2022-08-06T12:28:08;29.60;99.90
19908;DHT22;10116;53.112;7.356;2022-08-06T12:30:41;29.60;99.90
19908;DHT22;10116;53.112;7.356;2022-08-06T12:33:08;29.50;99.90
19908;DHT22;10116;53.112;7.356;2022-08-06T12:35:34;29.50;99.90
19908;DHT22;10116;53.112;7.356;2022-08-06T12:38:00;29.50;99.90
19908;DHT22;10116;53.112;7.356;2022-08-06T12:40:26;29.60;99.90
19908;DHT22;10116;53.112;7.356;2022-08-06T12:43:12;29.50;99.90
19908;DHT22;10116;53.112;7.356;2022-08-06T12:45:38;29.60;99.90
19908;DHT22;10116;53.112;7.356;2022-08-06T12:48:05;29.60;99.90
19908;DHT22;10116;53.112;7.356;2022-08-06T12:50:35;29.60;99.90
19908;DHT22;10116;53.112;7.356;2022-08-06T12:53:07;29.60;99.90
19908;DHT22;10116;53.112;7.356;2022-08-06T12:55:51;29.60;99.90
19908;DHT22;10116;53.112;7.356;2022-08-06T12:58:19;29.60;99.90
19908;DHT22;10116;53.112;7.356;2022-08-06T13:00:53;29.60;99.90
19908;DHT22;10116;53.112;7.356;2022-08-06T13:03:21;29.60;99.90
19908;DHT22;10116;53.112;7.356;2022-08-06T13:05:48;29.60;99.90
19908;DHT22;10116;53.112;7.356;2022-08-06T13:08:14;29.60;99.90
19908;DHT22;10116;53.112;7.356;2022-08-06T13:10:47;29.60;99.90
19908;DHT22;10116;53.112;7.356;2022-08-06T13:13:15;29.60;99.90
19908;DHT22;10116;53.112;7.356;2022-08-06T13:15:41;29.60;99.90
19908;DHT22;10116;53.112;7.356;2022-08-06T13:18:15;29.60;99.90
19908;DHT22;10116;53.112;7.356;2022-08-06T13:20:46;29.60;99.90
19908;DHT22;10116;53.112;7.356;2022-08-06T13:23:14;29.60;99.90
19908;DHT22;10116;53.112;7.356;2022-08-06T13:28:19;29.70;99.90
19908;DHT22;10116;53.112;7.356;2022-08-06T13:30:46;29.70;99.90
19908;DHT22;10116;53.112;7.356;2022-08-06T13:33:15;29.70;99.90
19908;DHT22;10116;53.112;7.356;2022-08-06T13:35:46;29.70;99.90
19908;DHT22;10116;53.112;7.356;2022-08-06T13:38:26;29.70;99.90
19908;DHT22;10116;53.112;7.356;2022-08-06T13:40:53;29.70;99.90
19908;DHT22;10116;53.112;7.356;2022-08-06T13:43:19;29.70;99.90
19908;DHT22;10116;53.112;7.356;2022-08-06T13:45:45;29.70;99.90
19908;DHT22;10116;53.112;7.356;2022-08-06T13:48:12;29.70;99.90
19908;DHT22;10116;53.112;7.356;2022-08-06T13:50:43;29.70;99.90
19908;DHT22;10116;53.112;7.356;2022-08-06T13:53:11;29.70;99.90
19908;DHT22;10116;53.112;7.356;2022-08-06T13:55:38;29.70;99.90
19908;DHT22;10116;53.112;7.356;2022-08-06T13:58:07;29.80;99.90
19908;DHT22;10116;53.112;7.356;2022-08-06T14:00:32;29.80;99.90
19908;DHT22;10116;53.112;7.356;2022-08-06T14:02:58;29.80;99.90
19908;DHT22;10116;53.112;7.356;2022-08-06T14:05:23;29.90;99.90
19908;DHT22;10116;53.112;7.356;2022-08-06T14:07:50;29.90;99.90
19908;DHT22;10116;53.112;7.356;2022-08-06T14:10:16;29.90;99.90
19908;DHT22;10116;53.112;7.356;2022-08-06T14:12:43;29.90;99.90
19908;DHT22;10116;53.112;7.356;2022-08-06T14:15:30;29.90;99.90
19908;DHT22;10116;53.112;7.356;2022-08-06T14:17:56;29.90;99.90
19908;DHT22;10116;53.112;7.356;2022-08-06T14:20:22;29.90;99.90
19908;DHT22;10116;53.112;7.356;2022-08-06T14:22:47;29.90;99.90
19908;DHT22;10116;53.112;7.356;2022-08-06T14:25:13;29.90;99.90
19908;DHT22;10116;53.112;7.356;2022-08-06T14:27:38;29.90;99.90
19908;DHT22;10116;53.112;7.356;2022-08-06T14:30:04;29.90;99.90
19908;DHT22;10116;53.112;7.356;2022-08-06T14:32:30;29.90;99.90
19908;DHT22;10116;53.112;7.356;2022-08-06T14:34:56;29.90;99.90
19908;DHT22;10116;53.112;7.356;2022-08-06T14:37:22;29.90;99.90
19908;DHT22;10116;53.112;7.356;2022-08-06T14:39:47;29.80;99.90
19908;DHT22;10116;53.112;7.356;2022-08-06T14:42:13;29.90;99.90
19908;DHT22;10116;53.112;7.356;2022-08-06T14:44:57;29.90;99.90
19908;DHT22;10116;53.112;7.356;2022-08-06T14:47:25;29.90;99.90
19908;DHT22;10116;53.112;7.356;2022-08-06T14:49:51;29.90;99.90
19908;DHT22;10116;53.112;7.356;2022-08-06T14:52:17;29.80;99.90
19908;DHT22;10116;53.112;7.356;2022-08-06T14:54:43;29.80;99.90
19908;DHT22;10116;53.112;7.356;2022-08-06T14:57:10;29.90;99.90
19908;DHT22;10116;53.112;7.356;2022-08-06T14:59:36;29.80;99.90
19908;DHT22;10116;53.112;7.356;2022-08-06T15:02:03;29.80;99.90
19908;DHT22;10116;53.112;7.356;2022-08-06T15:04:29;29.80;99.90
19908;DHT22;10116;53.112;7.356;2022-08-06T15:06:55;29.80;99.90
19908;DHT22;10116;53.112;7.356;2022-08-06T15:09:22;29.80;99.90
19908;DHT22;10116;53.112;7.356;2022-08-06T15:11:47;29.80;99.90
19908;DHT22;10116;53.112;7.356;2022-08-06T15:14:13;29.80;99.90
19908;DHT22;10116;53.112;7.356;2022-08-06T15:16:39;29.80;99.90
19908;DHT22;10116;53.112;7.356;2022-08-06T15:19:04;29.80;99.90
19908;DHT22;10116;53.112;7.356;2022-08-06T15:21:30;29.80;99.90
19908;DHT22;10116;53.112;7.356;2022-08-06T15:23:57;29.80;99.90
19908;DHT22;10116;53.112;7.356;2022-08-06T15:26:24;29.80;99.90
19908;DHT22;10116;53.112;7.356;2022-08-06T15:28:50;29.80;99.90
19908;DHT22;10116;53.112;7.356;2022-08-06T15:31:16;29.80;99.90
19908;DHT22;10116;53.112;7.356;2022-08-06T15:33:41;29.80;99.90
19908;DHT22;10116;53.112;7.356;2022-08-06T15:36:08;29.80;99.90
19908;DHT22;10116;53.112;7.356;2022-08-06T15:38:33;29.70;99.90
19908;DHT22;10116;53.112;7.356;2022-08-06T15:41:00;29.80;99.90
19908;DHT22;10116;53.112;7.356;2022-08-06T15:43:25;29.70;99.90
19908;DHT22;10116;53.112;7.356;2022-08-06T15:45:52;29.80;99.90
19908;DHT22;10116;53.112;7.356;2022-08-06T15:48:18;29.80;99.90
19908;DHT22;10116;53.112;7.356;2022-08-06T15:50:46;29.80;99.90
19908;DHT22;10116;53.112;7.356;2022-08-06T15:53:12;29.90;99.90
19908;DHT22;10116;53.112;7.356;2022-08-06T15:55:38;29.90;99.90
19908;DHT22;10116;53.112;7.356;2022-08-06T15:58:04;29.90;99.90
19908;DHT22;10116;53.112;7.356;2022-08-06T16:00:29;29.90;99.90
19908;DHT22;10116;53.112;7.356;2022-08-06T16:02:56;30.00;99.90
19908;DHT22;10116;53.112;7.356;2022-08-06T16:05:21;30.00;99.90
19908;DHT22;10116;53.112;7.356;2022-08-06T16:07:47;30.00;99.90
19908;DHT22;10116;53.112;7.356;2022-08-06T16:10:13;30.00;99.90
19908;DHT22;10116;53.112;7.356;2022-08-06T16:12:40;30.00;99.90
19908;DHT22;10116;53.112;7.356;2022-08-06T16:15:06;30.00;99.90
19908;DHT22;10116;53.112;7.356;2022-08-06T16:17:33;30.00;99.90
19908;DHT22;10116;53.112;7.356;2022-08-06T16:19:59;30.00;99.90
19908;DHT22;10116;53.112;7.356;2022-08-06T16:22:25;30.00;99.90
19908;DHT22;10116;53.112;7.356;2022-08-06T16:24:51;29.90;99.90
19908;DHT22;10116;53.112;7.356;2022-08-06T16:27:17;29.90;99.90
19908;DHT22;10116;53.112;7.356;2022-08-06T16:29:43;29.90;99.90
19908;DHT22;10116;53.112;7.356;2022-08-06T16:32:09;29.90;99.90
19908;DHT22;10116;53.112;7.356;2022-08-06T16:34:35;29.90;99.90
19908;DHT22;10116;53.112;7.356;2022-08-06T16:37:01;29.90;99.90
19908;DHT22;10116;53.112;7.356;2022-08-06T16:39:28;29.90;99.90
19908;DHT22;10116;53.112;7.356;2022-08-06T16:41:53;29.80;99.90
19908;DHT22;10116;53.112;7.356;2022-08-06T16:44:19;29.80;99.90